Palo Alto Of Santa Clara County, CA

12:33 AM PDT on September 17, 2014 (GMT -0700)
Moffett Federal Air Field | Change Station
CLOSE
Current Station
Airport
Location: Moffett NAS,
Elevation: 39 ft
Nearby Weather Stations

Elev 39 ft 37.41 °N, 122.05 °W | Updated 37 minutes ago

Partly Cloudy
Partly Cloudy
65 °F
Feels Like 65 °F
N
7
Wind Variable Wind from NNE

Today
High -- | Low -- °F
--% Chance of Precip.
Yesterday
High -- | Low -- °F
Precip. -- in
6:52 AM 7:12 PM
Last Quarter, 38% visible
Pressure 29.85 in
Visibility 10.0 miles
Clouds Clear
Dew Point 60 °F
Humidity 84%
Rainfall 0.04 in
Snow Depth Not available.
UV 0 out of 12
Pollen 5.20 out of 12
Ozone Good
PM2.5 Good
Flu Activity Not available.
METAR KNUQ 170656Z AUTO 02006KT 10SM CLR 18/16 A2984 RMK AO2 SLP106 T01830156 TSNO

More Conditions Fewer Conditions

Pressure 29.85 in
Visibility 10.0 miles
Clouds Clear
Dew Point 60 °F
Humidity 84%
Rainfall 0.04 in
Snow Depth Not available.
UV 0 out of 12
Pollen 5.20 out of 12
Ozone Good
PM2.5 Good
Flu Activity Not available.
METAR KNUQ 170656Z AUTO 02006KT 10SM CLR 18/16 A2984 RMK AO2 SLP106 T01830156 TSNO

More Conditions Fewer Conditions

10-Day Weather Forecast

Almanac

Astronomy

Sep. 17, 2014 Rise Set
Actual Time 6:52 AM PDT 7:12 PM PDT
Civil Twilight 6:26 AM PDT 7:39 PM PDT
Nautical Twilight 5:55 AM PDT 8:09 PM PDT
Astronomical Twilight 5:24 AM PDT 8:40 PM PDT
Moon 1:01 AM PDT 3:21 PM PDT
Length of Visible Light 13h 13m
Length of Day
12h 20m
Tomorrow will be 2m 23s shorter.
Last Quarter, 38% of the Moon is Illuminated
Today
Last Quarter
Sep 24
New
Oct 1
First Quarter
Oct 8
Full
Oct 15
Last Quarter

Today's Extremes

State Highs State Lows

Community

WunderPhotos

Upload Photos

1,753,976 photos uploaded!

Nearby

Air Quality

  Air Quality AQ Index Pollutant
Yesterday Good
PM2.5
Yesterday Good
OZONE
Current Good
PM2.5
Current Good
OZONE
Tuesday Good
PM2.5
Wednesday Good
OZONE
Thursday Good
OZONE
Friday Good
OZONE
Saturday Good
OZONE
Sunday Good
OZONE

Snow Depth

Station Depth Elevation
Tahoe City Cross 0 in 6750 ft
Echo Peak 0 in 7800 ft
Spratt Creek 0 in 6200 ft
Adin Mountain 0 in 6200 ft
Independence Creek 0 in 6500 ft

Earthquake Activity

City Distance Mag. Time & Date
Cobb, California 97 miles 2.7 1:23 PM PDT
2014-09-16
Cobb, California 101 miles 2.7 11:07 AM PDT
2014-09-14
Minimum magnitude displayed is 2.5.

Coastal Water Temperatures

Place Temperature
No Stations Reporting

Nearby Weather Stations